createdAt,value
2019-03-03T00:00:44.196Z,100026.80
2019-03-03T00:03:13.000Z,100028.62
2019-03-03T00:05:41.596Z,100021.56
2019-03-03T00:08:10.149Z,100021.08
2019-03-03T00:10:38.736Z,100022.42
2019-03-03T00:13:07.879Z,100029.59
2019-03-03T00:15:36.475Z,100033.52
2019-03-03T00:18:05.060Z,100017.70
2019-03-03T00:20:33.690Z,100032.63
2019-03-03T00:23:02.312Z,100027.66
2019-03-03T00:25:30.939Z,100032.23
2019-03-03T00:27:59.679Z,100029.93
2019-03-03T00:30:28.290Z,100024.31
2019-03-03T00:32:57.001Z,100015.66
2019-03-03T00:35:25.639Z,100020.90
2019-03-03T00:38:02.000Z,100011.76
2019-03-03T00:40:32.172Z,100011.61
2019-03-03T00:43:05.640Z,100009.42
2019-03-03T00:45:38.616Z,100010.76
2019-03-03T00:48:11.828Z,100016.48
2019-03-03T00:50:58.178Z,100001.62
2019-03-03T00:53:28.436Z,99992.39
2019-03-03T00:56:01.651Z,100004.06
2019-03-03T00:58:34.270Z,99998.38
2019-03-03T01:01:07.454Z,99997.75
2019-03-03T01:03:55.578Z,99981.32
2019-03-03T01:06:41.010Z,99985.70
2019-03-03T01:09:20.199Z,99999.09
2019-03-03T01:11:59.689Z,99982.40
2019-03-03T01:14:32.917Z,99981.77
2019-03-03T01:17:09.142Z,99982.28
2019-03-03T01:19:39.402Z,99978.27
2019-03-03T01:22:15.647Z,99967.83
2019-03-03T01:24:45.904Z,99977.64
2019-03-03T01:27:14.871Z,99974.59
2019-03-03T01:29:43.499Z,99970.95
2019-03-03T01:32:12.226Z,99974.96
2019-03-03T01:34:40.843Z,99970.46
2019-03-03T01:37:09.443Z,99971.43
2019-03-03T01:39:38.067Z,99962.44
2019-03-03T01:42:06.615Z,99965.97
2019-03-03T01:44:35.172Z,99952.06
2019-03-03T01:47:03.972Z,99958.27
2019-03-03T01:49:32.533Z,99948.57
2019-03-03T01:52:01.117Z,99946.38
2019-03-03T01:54:29.586Z,99938.83
2019-03-03T01:56:58.111Z,99940.02
2019-03-03T01:59:26.745Z,99922.63
2019-03-03T02:01:55.443Z,99930.17
2019-03-03T02:04:24.033Z,99933.06
2019-03-03T02:06:52.606Z,99930.76
2019-03-03T02:09:21.334Z,99924.44
2019-03-03T02:11:50.028Z,99912.72
2019-03-03T02:14:18.687Z,99903.36
2019-03-03T02:16:47.252Z,99897.67
2019-03-03T02:19:15.824Z,99879.42
2019-03-03T02:21:44.401Z,99880.76
2019-03-03T02:24:12.993Z,99878.08
2019-03-03T02:26:41.600Z,99878.08
2019-03-03T02:29:10.190Z,99860.69
2019-03-03T02:31:38.829Z,99871.02
2019-03-03T02:34:07.420Z,99862.14
2019-03-03T02:36:35.882Z,99860.47
2019-03-03T02:39:07.493Z,99851.38
2019-03-03T02:41:36.093Z,99847.69
2019-03-03T02:44:04.775Z,99844.05
2019-03-03T02:46:33.304Z,99844.90
2019-03-03T02:49:01.865Z,99840.13
2019-03-03T02:51:30.398Z,99836.45
2019-03-03T02:53:59.087Z,99854.21
2019-03-03T02:56:27.675Z,99843.72
2019-03-03T02:58:56.239Z,99841.53
2019-03-03T03:01:29.463Z,99835.69
2019-03-03T03:03:58.023Z,99839.55
2019-03-03T03:06:30.853Z,99823.16
2019-03-03T03:09:10.078Z,99821.09
2019-03-03T03:11:40.563Z,99829.63
2019-03-03T03:14:25.801Z,99818.20
2019-03-03T03:17:08.087Z,99824.34
2019-03-03T03:19:54.697Z,99827.62
2019-03-03T03:22:43.345Z,99820.50
2019-03-03T03:25:16.394Z,99824.94
2019-03-03T03:27:58.382Z,99818.08
2019-03-03T03:30:44.814Z,99807.77
2019-03-03T03:33:23.825Z,99816.42
2019-03-03T03:35:54.116Z,99811.56
2019-03-03T03:38:27.114Z,99813.42
2019-03-03T03:41:15.458Z,99810.11
2019-03-03T03:43:45.692Z,99798.06
2019-03-03T03:46:32.103Z,99803.48
2019-03-03T03:49:11.268Z,99805.67
2019-03-03T03:51:44.087Z,99791.45
2019-03-03T03:54:30.622Z,99802.87
2019-03-03T03:57:00.862Z,99796.19
2019-03-03T03:59:33.904Z,99788.11
2019-03-03T04:02:13.054Z,99800.36
2019-03-03T04:04:46.217Z,99783.46
2019-03-03T04:07:22.335Z,99779.23
2019-03-03T04:10:01.653Z,99786.41
2019-03-03T04:12:31.978Z,99786.89
2019-03-03T04:15:02.191Z,99789.56
2019-03-03T04:17:34.967Z,99779.23
2019-03-03T04:20:22.286Z,99782.88
2019-03-03T04:23:08.848Z,99775.55
2019-03-03T04:25:55.239Z,99775.80
2019-03-03T04:28:25.403Z,99777.95
2019-03-03T04:30:58.364Z,99779.45
2019-03-03T04:33:44.591Z,99784.31
2019-03-03T04:36:23.594Z,99783.58
2019-03-03T04:38:59.587Z,99785.34
2019-03-03T04:41:32.581Z,99785.13
2019-03-03T04:44:05.522Z,99780.68
2019-03-03T04:46:44.534Z,99781.22
2019-03-03T04:49:14.688Z,99769.23
2019-03-03T04:51:57.040Z,99769.98
2019-03-03T04:54:33.079Z,99763.98
2019-03-03T04:57:09.032Z,99761.00
2019-03-03T04:59:42.028Z,99761.56
2019-03-03T05:02:20.867Z,99753.70
2019-03-03T05:04:53.946Z,99744.66
2019-03-03T05:07:32.701Z,99748.60
2019-03-03T05:10:02.940Z,99746.61
2019-03-03T05:12:49.362Z,99733.51
2019-03-03T05:15:25.342Z,99735.11
2019-03-03T05:18:04.610Z,99735.86
2019-03-03T05:20:40.719Z,99739.64
2019-03-03T05:23:09.436Z,99731.25
2019-03-03T05:25:38.117Z,99729.36
2019-03-03T05:28:06.708Z,99737.49
2019-03-03T05:30:35.390Z,99722.46
2019-03-03T05:33:04.013Z,99715.41
2019-03-03T05:35:32.608Z,99721.02
2019-03-03T05:38:01.204Z,99721.66
2019-03-03T05:40:29.744Z,99734.64
2019-03-03T05:42:58.399Z,99707.45
2019-03-03T05:45:27.055Z,99712.78
2019-03-03T05:47:55.506Z,99706.96
2019-03-03T05:50:24.026Z,99696.27
2019-03-03T05:52:52.628Z,99696.27
2019-03-03T05:55:21.154Z,99708.62
2019-03-03T05:57:49.749Z,99704.99
2019-03-03T06:00:18.342Z,99697.83
2019-03-03T06:02:46.935Z,99706.18
2019-03-03T06:05:15.482Z,99692.34
2019-03-03T06:07:44.121Z,99691.48
2019-03-03T06:10:13.085Z,99691.38
2019-03-03T06:12:41.607Z,99685.55
2019-03-03T06:15:13.069Z,99691.11
2019-03-03T06:17:41.671Z,99691.23
2019-03-03T06:20:12.190Z,99704.09
2019-03-03T06:22:40.779Z,99696.79
2019-03-03T06:25:10.688Z,99699.34
2019-03-03T06:27:39.275Z,99694.12
2019-03-03T06:30:11.076Z,99690.84
2019-03-03T06:32:39.590Z,99692.66
2019-03-03T06:35:09.896Z,99685.84
2019-03-03T06:37:38.489Z,99695.07
2019-03-03T06:40:09.382Z,99697.27
2019-03-03T06:42:37.916Z,99689.36
2019-03-03T06:45:12.597Z,99684.87
2019-03-03T06:47:41.191Z,99682.34
2019-03-03T06:50:11.793Z,99682.68
2019-03-03T06:52:40.464Z,99686.20
2019-03-03T06:55:09.385Z,99701.27
2019-03-03T06:57:38.150Z,99688.24
2019-03-03T07:00:12.971Z,99696.63
2019-03-03T07:02:41.567Z,99696.63
2019-03-03T07:05:11.390Z,99697.11
2019-03-03T07:07:40.085Z,99702.87
2019-03-03T07:10:13.768Z,99702.38
2019-03-03T07:12:42.402Z,99697.16
2019-03-03T07:15:16.158Z,99701.53
2019-03-03T07:17:44.761Z,99702.72
2019-03-03T07:20:15.186Z,99697.59
2019-03-03T07:22:43.777Z,99697.70
2019-03-03T07:25:13.775Z,99701.44
2019-03-03T07:27:42.366Z,99688.30
2019-03-03T07:30:15.524Z,99692.26
2019-03-03T07:32:54.495Z,99695.00
2019-03-03T07:35:23.014Z,99697.41
2019-03-03T07:37:51.608Z,99697.41
2019-03-03T07:40:20.215Z,99695.43
2019-03-03T07:42:48.740Z,99693.28
2019-03-03T07:45:17.259Z,99684.62
2019-03-03T07:47:45.710Z,99677.94
2019-03-03T07:50:14.362Z,99683.77
2019-03-03T07:52:43.054Z,99695.16
2019-03-03T07:55:11.648Z,99694.89
2019-03-03T07:57:40.234Z,99693.29
2019-03-03T08:00:13.596Z,99694.36
2019-03-03T08:02:42.186Z,99694.73
2019-03-03T08:05:11.516Z,99696.55
2019-03-03T08:07:40.377Z,99702.11
2019-03-03T08:10:11.428Z,99697.47
2019-03-03T08:12:40.023Z,99705.84
2019-03-03T08:15:11.291Z,99708.31
2019-03-03T08:17:39.840Z,99705.73
2019-03-03T08:20:11.046Z,99698.78
2019-03-03T08:22:39.665Z,99698.78
2019-03-03T08:25:09.877Z,99698.84
2019-03-03T08:27:38.565Z,99693.22
2019-03-03T08:30:20.005Z,99697.81
2019-03-03T08:32:48.532Z,99692.31
2019-03-03T08:35:25.429Z,99698.78
2019-03-03T08:37:54.023Z,99698.30
2019-03-03T08:40:22.636Z,99697.93
2019-03-03T08:42:52.866Z,99689.21
2019-03-03T08:45:28.831Z,99694.56
2019-03-03T08:47:59.055Z,99693.80
2019-03-03T08:50:29.335Z,99696.27
2019-03-03T08:53:02.223Z,99699.27
2019-03-03T08:55:32.363Z,99692.25
2019-03-03T08:58:02.590Z,99699.42
2019-03-03T09:00:35.545Z,99687.66
2019-03-03T09:03:21.062Z,99700.61
2019-03-03T09:05:51.246Z,99692.58
2019-03-03T09:08:24.264Z,99693.59
2019-03-03T09:10:57.087Z,99690.76
2019-03-03T09:13:27.172Z,99697.33
2019-03-03T09:16:03.489Z,99680.27
2019-03-03T09:18:39.697Z,99686.69
2019-03-03T09:21:12.883Z,99690.70
2019-03-03T09:23:59.241Z,99682.40
2019-03-03T09:26:31.986Z,99696.99
2019-03-03T09:29:02.153Z,99697.20
2019-03-03T09:31:38.025Z,99698.59
2019-03-03T09:34:13.674Z,99698.59
2019-03-03T09:36:43.904Z,99688.95
2019-03-03T09:39:14.232Z,99686.38
2019-03-03T09:41:47.720Z,99680.70
2019-03-03T09:44:34.392Z,99684.72
2019-03-03T09:47:20.731Z,99677.55
2019-03-03T09:49:57.179Z,99686.42
2019-03-03T09:52:42.805Z,99676.70
2019-03-03T09:55:29.423Z,99685.30
2019-03-03T09:58:02.875Z,99678.27
2019-03-03T10:00:33.106Z,99677.14
2019-03-03T10:03:19.639Z,99685.88
2019-03-03T10:06:04.999Z,99671.52
2019-03-03T10:08:35.232Z,99683.89
2019-03-03T10:11:21.354Z,99683.89
2019-03-03T10:13:51.508Z,99678.14
2019-03-03T10:16:21.679Z,99682.27
2019-03-03T10:18:54.477Z,99685.36
2019-03-03T10:21:24.710Z,99667.36
2019-03-03T10:24:03.578Z,99668.70
2019-03-03T10:26:51.911Z,99674.10
2019-03-03T10:29:22.075Z,99663.75
2019-03-03T10:32:04.624Z,99676.86
2019-03-03T10:34:49.775Z,99673.53
2019-03-03T10:37:19.970Z,99675.20
2019-03-03T10:40:08.148Z,99661.98
2019-03-03T10:42:40.889Z,99672.04
2019-03-03T10:45:14.595Z,99670.22
2019-03-03T10:47:47.223Z,99679.30
2019-03-03T10:50:20.498Z,99663.23
2019-03-03T10:52:56.821Z,99671.48
2019-03-03T10:55:33.135Z,99647.87
2019-03-03T10:58:12.302Z,99662.27
2019-03-03T11:00:59.527Z,99646.20
2019-03-03T11:03:35.867Z,99656.91
2019-03-03T11:06:08.967Z,99660.56
2019-03-03T11:08:51.386Z,99660.92
2019-03-03T11:11:24.537Z,99669.28
2019-03-03T11:13:58.128Z,99674.31
2019-03-03T11:16:28.375Z,99674.92
2019-03-03T11:18:58.577Z,99671.55
2019-03-03T11:21:34.753Z,99670.91
2019-03-03T11:24:07.855Z,99669.57
2019-03-03T11:26:53.187Z,99665.91
2019-03-03T11:29:26.131Z,99663.32
2019-03-03T11:31:59.294Z,99641.95
2019-03-03T11:34:35.446Z,99658.78
2019-03-03T11:37:14.041Z,99655.66
2019-03-03T11:39:43.989Z,99654.56
2019-03-03T11:42:14.238Z,99650.62
2019-03-03T11:44:47.450Z,99645.30
2019-03-03T11:47:21.044Z,99641.48
2019-03-03T11:50:00.314Z,99642.41
2019-03-03T11:52:33.643Z,99630.27
2019-03-03T11:55:06.746Z,99627.00
2019-03-03T11:57:48.905Z,99625.91
2019-03-03T12:00:35.399Z,99608.75
2019-03-03T12:03:12.569Z,99609.30
2019-03-03T12:05:48.952Z,99603.13
2019-03-03T12:08:36.428Z,99610.22
2019-03-03T12:11:18.901Z,99613.45
2019-03-03T12:13:49.068Z,99605.41
2019-03-03T12:16:19.318Z,99616.14
2019-03-03T12:19:05.903Z,99607.73
2019-03-03T12:21:41.772Z,99603.42
2019-03-03T12:24:21.047Z,99608.78
2019-03-03T12:26:53.765Z,99607.31
2019-03-03T12:29:35.855Z,99610.31
2019-03-03T12:32:09.066Z,99598.42
2019-03-03T12:34:48.387Z,99608.09
2019-03-03T12:37:19.884Z,99603.23
2019-03-03T12:39:52.695Z,99596.33
2019-03-03T12:42:28.677Z,99589.92
2019-03-03T12:45:04.457Z,99589.59
2019-03-03T12:47:34.550Z,99596.42
2019-03-03T12:50:14.023Z,99582.34
2019-03-03T12:52:49.921Z,99585.88
2019-03-03T12:55:20.087Z,99585.38
2019-03-03T12:57:53.025Z,99582.53
2019-03-03T13:00:23.112Z,99574.13
2019-03-03T13:03:09.411Z,99583.88
2019-03-03T13:05:45.630Z,99570.11
2019-03-03T13:08:15.895Z,99567.95
2019-03-03T13:10:46.166Z,99566.09
2019-03-03T13:13:19.425Z,99558.05
2019-03-03T13:16:04.804Z,99566.45
2019-03-03T13:18:53.525Z,99553.70
2019-03-03T13:21:35.688Z,99552.69
2019-03-03T13:24:06.274Z,99563.09
2019-03-03T13:26:39.415Z,99542.63
2019-03-03T13:29:09.790Z,99547.14
2019-03-03T13:31:39.960Z,99543.94
2019-03-03T13:34:22.290Z,99537.72
2019-03-03T13:36:55.177Z,99544.92
2019-03-03T13:39:25.483Z,99539.36
2019-03-03T13:41:58.825Z,99536.00
2019-03-03T13:44:27.421Z,99538.16
2019-03-03T13:46:56.124Z,99527.30
2019-03-03T13:49:24.737Z,99530.47
2019-03-03T13:51:53.265Z,99521.29
2019-03-03T13:54:21.905Z,99515.08
2019-03-03T13:56:50.428Z,99524.98
2019-03-03T13:59:18.961Z,99525.11
2019-03-03T14:01:47.594Z,99510.73
2019-03-03T14:04:16.202Z,99515.60
2019-03-03T14:06:44.762Z,99514.03
2019-03-03T14:09:13.566Z,99506.84
2019-03-03T14:11:42.167Z,99521.75
2019-03-03T14:14:10.697Z,99509.82
2019-03-03T14:16:39.466Z,99494.27
2019-03-03T14:19:08.588Z,99495.61
2019-03-03T14:21:37.118Z,99487.20
2019-03-03T14:24:06.108Z,99491.59
2019-03-03T14:26:34.704Z,99488.91
2019-03-03T14:29:03.563Z,99489.72
2019-03-03T14:31:32.191Z,99491.59
2019-03-03T14:34:00.832Z,99485.52
2019-03-03T14:36:29.733Z,99471.79
2019-03-03T14:38:58.373Z,99478.48
2019-03-03T14:41:26.990Z,99456.34
2019-03-03T14:43:55.741Z,99466.73
2019-03-03T14:46:24.348Z,99467.70
2019-03-03T14:48:52.807Z,99466.07
2019-03-03T14:51:21.544Z,99457.87
2019-03-03T14:53:50.156Z,99454.70
2019-03-03T14:56:18.668Z,99460.25
2019-03-03T14:58:47.215Z,99442.20
2019-03-03T15:01:15.818Z,99446.36
2019-03-03T15:03:44.544Z,99440.02
2019-03-03T15:06:13.174Z,99448.38
2019-03-03T15:08:41.769Z,99435.70
2019-03-03T15:11:10.468Z,99436.21
2019-03-03T15:13:38.998Z,99432.91
2019-03-03T15:16:07.627Z,99430.55
2019-03-03T15:18:36.318Z,99419.71
2019-03-03T15:21:05.037Z,99409.84
2019-03-03T15:23:33.635Z,99422.26
2019-03-03T15:26:02.373Z,99398.14
2019-03-03T15:28:31.167Z,99399.66
2019-03-03T15:31:00.031Z,99393.95
2019-03-03T15:33:28.648Z,99401.69
2019-03-03T15:35:57.283Z,99381.27
2019-03-03T15:38:25.981Z,99375.25
2019-03-03T15:40:54.711Z,99379.98
2019-03-03T15:43:23.416Z,99377.98
2019-03-03T15:45:52.017Z,99366.59
2019-03-03T15:48:20.620Z,99356.05
2019-03-03T15:50:49.419Z,99354.58
2019-03-03T15:53:18.409Z,99348.91
2019-03-03T15:55:47.090Z,99343.38
2019-03-03T15:58:15.619Z,99340.38
2019-03-03T16:00:44.259Z,99353.97
2019-03-03T16:03:12.950Z,99337.57
2019-03-03T16:05:41.581Z,99336.58
2019-03-03T16:08:10.108Z,99331.89
2019-03-03T16:10:38.803Z,99326.53
2019-03-03T16:13:07.634Z,99325.05
2019-03-03T16:15:36.282Z,99329.07
2019-03-03T16:18:05.243Z,99317.18
2019-03-03T16:20:33.840Z,99308.82
2019-03-03T16:23:12.911Z,99305.65
2019-03-03T16:25:41.742Z,99299.75
2019-03-03T16:28:10.752Z,99297.42
2019-03-03T16:30:39.494Z,99296.43
2019-03-03T16:33:08.088Z,99297.60
2019-03-03T16:35:37.081Z,99291.39
2019-03-03T16:38:05.696Z,99289.38
2019-03-03T16:40:39.659Z,99283.02
2019-03-03T16:43:04.798Z,99287.89
2019-03-03T16:45:33.626Z,99282.21
2019-03-03T16:48:02.180Z,99272.64
2019-03-03T16:50:30.737Z,99272.82
2019-03-03T16:52:59.336Z,99263.28
2019-03-03T16:55:27.931Z,99262.44
2019-03-03T16:57:56.642Z,99257.74
2019-03-03T17:00:26.256Z,99256.23
2019-03-03T17:02:54.979Z,99261.59
2019-03-03T17:05:27.594Z,99263.11
2019-03-03T17:07:56.394Z,99243.48
2019-03-03T17:10:24.994Z,99265.33
2019-03-03T17:12:53.598Z,99266.84
2019-03-03T17:15:24.239Z,99251.77
2019-03-03T17:17:52.877Z,99254.63
2019-03-03T17:20:21.534Z,99247.91
2019-03-03T17:22:50.157Z,99251.27
2019-03-03T17:25:23.735Z,99244.70
2019-03-03T17:27:52.275Z,99252.93
2019-03-03T17:30:23.467Z,99251.77
2019-03-03T17:32:52.158Z,99250.25
2019-03-03T17:35:20.982Z,99241.20
2019-03-03T17:37:50.012Z,99245.58
2019-03-03T17:40:25.795Z,99242.22
2019-03-03T17:42:54.449Z,99236.53
2019-03-03T17:45:23.857Z,99242.56
2019-03-03T17:47:52.689Z,99245.95
2019-03-03T17:50:29.171Z,99234.05
2019-03-03T17:52:57.764Z,99237.05
2019-03-03T17:55:26.502Z,99238.88
2019-03-03T17:57:55.247Z,99228.50
2019-03-03T18:00:26.796Z,99231.35
2019-03-03T18:02:55.773Z,99234.53
2019-03-03T18:05:24.367Z,99234.70
2019-03-03T18:07:53.110Z,99226.01
2019-03-03T18:10:21.884Z,99218.95
2019-03-03T18:12:50.613Z,99220.28
2019-03-03T18:15:19.220Z,99223.81
2019-03-03T18:17:50.287Z,99201.14
2019-03-03T18:20:19.773Z,99207.73
2019-03-03T18:22:48.696Z,99198.69
2019-03-03T18:25:18.686Z,99195.16
2019-03-03T18:27:47.335Z,99192.65
2019-03-03T18:30:29.301Z,99181.53
2019-03-03T18:32:57.963Z,99175.20
2019-03-03T18:35:26.483Z,99187.95
2019-03-03T18:37:55.080Z,99173.36
2019-03-03T18:40:24.721Z,99154.02
2019-03-03T18:42:53.595Z,99171.47
2019-03-03T18:45:23.307Z,99167.44
2019-03-03T18:47:52.099Z,99168.78
2019-03-03T18:50:28.716Z,99155.50
2019-03-03T18:52:59.670Z,99158.72
2019-03-03T18:55:27.717Z,99150.48
2019-03-03T18:57:56.349Z,99139.40
2019-03-03T19:00:32.034Z,99139.40
2019-03-03T19:03:01.074Z,99130.19
2019-03-03T19:05:29.690Z,99132.02
2019-03-03T19:07:58.425Z,99124.15
2019-03-03T19:10:40.754Z,99111.73
2019-03-03T19:13:09.641Z,99108.70
2019-03-03T19:15:38.321Z,99103.34
2019-03-03T19:18:07.073Z,99100.30
2019-03-03T19:20:36.405Z,99100.66
2019-03-03T19:23:05.107Z,99090.27
2019-03-03T19:25:33.645Z,99086.90
2019-03-03T19:28:02.304Z,99072.80
2019-03-03T19:30:31.048Z,99076.17
2019-03-03T19:33:05.568Z,99076.52
2019-03-03T19:35:33.375Z,99065.44
2019-03-03T19:38:02.029Z,99061.55
2019-03-03T19:40:30.641Z,99060.05
2019-03-03T19:42:59.316Z,99066.77
2019-03-03T19:45:36.383Z,99053.66
2019-03-03T19:48:06.403Z,99054.19
2019-03-03T19:50:35.209Z,99047.83
2019-03-03T19:53:04.332Z,99052.37
2019-03-03T19:55:32.985Z,99049.69
2019-03-03T19:58:01.680Z,99028.20
2019-03-03T20:00:38.739Z,99024.48
2019-03-03T20:03:06.173Z,99028.52
2019-03-03T20:05:34.776Z,99036.91
2019-03-03T20:08:03.745Z,99008.72
2019-03-03T20:10:32.647Z,99013.24
2019-03-03T20:13:01.314Z,99009.70
2019-03-03T20:15:30.044Z,99011.88
2019-03-03T20:17:58.712Z,99013.38
2019-03-03T20:20:27.798Z,99014.77
2019-03-03T20:22:56.810Z,99005.38
2019-03-03T20:25:25.742Z,99007.19
2019-03-03T20:27:54.393Z,98980.50
2019-03-03T20:30:24.314Z,98993.43
2019-03-03T20:32:52.919Z,98996.95
2019-03-03T20:35:21.656Z,98985.72
2019-03-03T20:37:50.257Z,98969.92
2019-03-03T20:40:20.694Z,98961.05
2019-03-03T20:42:49.439Z,98956.67
2019-03-03T20:45:21.418Z,98953.34
2019-03-03T20:47:50.020Z,98960.05
2019-03-03T20:50:20.392Z,98966.92
2019-03-03T20:52:49.799Z,98966.77
2019-03-03T20:55:20.511Z,98956.67
2019-03-03T20:57:49.214Z,98943.09
2019-03-03T21:00:20.327Z,98940.25
2019-03-03T21:02:49.046Z,98940.25
2019-03-03T21:05:17.919Z,98962.89
2019-03-03T21:07:51.267Z,98943.44
2019-03-03T21:10:24.202Z,98948.97
2019-03-03T21:12:52.869Z,98950.99
2019-03-03T21:15:22.077Z,98958.55
2019-03-03T21:17:50.686Z,98947.31
2019-03-03T21:20:20.709Z,98936.22
2019-03-03T21:22:49.543Z,98937.25
2019-03-03T21:25:19.810Z,98924.83
2019-03-03T21:27:48.512Z,98929.04
2019-03-03T21:30:25.079Z,98935.22
2019-03-03T21:32:53.974Z,98916.42
2019-03-03T21:35:23.268Z,98919.95
2019-03-03T21:37:52.283Z,98896.10
2019-03-03T21:40:21.940Z,98903.31
2019-03-03T21:42:50.640Z,98889.73
2019-03-03T21:45:21.622Z,98870.13
2019-03-03T21:47:50.407Z,98878.88
2019-03-03T21:50:20.804Z,98886.92
2019-03-03T21:52:49.420Z,98871.84
2019-03-03T21:55:18.012Z,98882.55
2019-03-03T21:57:46.611Z,98883.55
2019-03-03T22:00:18.263Z,98860.89
2019-03-03T22:02:47.012Z,98874.81
2019-03-03T22:05:15.631Z,98872.13
2019-03-03T22:07:44.256Z,98865.77
2019-03-03T22:10:12.976Z,98857.33
2019-03-03T22:12:41.567Z,98841.37
2019-03-03T22:15:12.497Z,98850.23
2019-03-03T22:17:41.438Z,98843.51
2019-03-03T22:20:11.060Z,98841.52
2019-03-03T22:22:39.658Z,98828.09
2019-03-03T22:25:10.486Z,98827.94
2019-03-03T22:27:39.098Z,98827.09
2019-03-03T22:30:10.771Z,98818.88
2019-03-03T22:32:39.370Z,98799.24
2019-03-03T22:35:08.795Z,98795.06
2019-03-03T22:37:37.318Z,98777.42
2019-03-03T22:40:22.906Z,98770.70
2019-03-03T22:42:51.611Z,98767.86
2019-03-03T22:45:20.209Z,98755.28
2019-03-03T22:47:48.845Z,98739.98
2019-03-03T22:50:18.671Z,98721.17
2019-03-03T22:52:47.257Z,98702.22
2019-03-03T22:55:20.193Z,98695.16
2019-03-03T22:57:48.987Z,98701.88
2019-03-03T23:00:46.238Z,98692.47
2019-03-03T23:03:32.745Z,98693.61
2019-03-03T23:06:09.829Z,98680.69
2019-03-03T23:08:50.143Z,98676.64
2019-03-03T23:11:33.455Z,98663.91
2019-03-03T23:14:13.923Z,98668.44
2019-03-03T23:17:09.659Z,98668.25
2019-03-03T23:20:02.065Z,98653.17
2019-03-03T23:22:46.816Z,98665.70
2019-03-03T23:25:27.149Z,98654.44
2019-03-03T23:27:55.619Z,98678.92
2019-03-03T23:30:24.218Z,98682.43
2019-03-03T23:32:53.207Z,98663.93
2019-03-03T23:35:21.884Z,98674.02
2019-03-03T23:37:50.479Z,98689.88
2019-03-03T23:40:19.488Z,98693.91
2019-03-03T23:42:48.083Z,98694.88
2019-03-03T23:45:16.625Z,98699.39
2019-03-03T23:47:45.150Z,98698.85
2019-03-03T23:50:13.849Z,98709.60
2019-03-03T23:52:42.536Z,98693.66
2019-03-03T23:55:12.763Z,98692.14
2019-03-03T23:57:41.215Z,98677.19
